LKDK weather

Dvůr Králové Nad Labem Airport
Dvůr Králové Nad Labem, Hradec Králové Region, Czechia

Public forecast

Using degrees Celsius for public forecast. Weather courtesy of forecast.io.

Closest aviation weather report (METAR) to Dvůr Králové Nad Labem Airport

Closest report is Pardubice Airport, 24.4 nm (45.1 km) S. Retrieved 2019/10/19 11:00 UTC (3 minutes ago):

LKPD 191100Z 09009KT CAVOK 16/11 Q1012 NOSIG RMK BLU BLU

Closest aviation forecast (TAF) to Dvůr Králové Nad Labem Airport

Closest forecast is Pardubice Airport, 24.4 nm (45.1 km) S. Retrieved 2019/10/19 06:00 UTC (5 hours ago):

TAF LKPD 190500Z 1906/2006 VRB02KT CAVOK TEMPO 1908/1920 13008KT PROB40 TEMPO 2000/2006 4000 BR